createdAt,value
2023-03-16T00:00:57.229Z,99.90
2023-03-16T00:03:30.334Z,99.90
2023-03-16T00:05:58.724Z,99.90
2023-03-16T00:08:26.613Z,99.90
2023-03-16T00:10:54.722Z,99.90
2023-03-16T00:13:24.785Z,99.90
2023-03-16T00:15:53.843Z,99.90
2023-03-16T00:18:22.436Z,99.90
2023-03-16T00:20:55.734Z,99.90
2023-03-16T00:23:27.213Z,99.90
2023-03-16T00:25:55.560Z,99.90
2023-03-16T00:28:23.442Z,99.90
2023-03-16T00:30:52.163Z,99.90
2023-03-16T00:33:19.982Z,99.90
2023-03-16T00:35:49.898Z,99.90
2023-03-16T00:38:20.411Z,99.90
2023-03-16T00:40:51.238Z,99.90
2023-03-16T00:43:19.074Z,99.90
2023-03-16T00:45:47.079Z,99.90
2023-03-16T00:48:15.021Z,99.90
2023-03-16T00:50:43.352Z,99.90
2023-03-16T00:53:11.207Z,99.90
2023-03-16T00:55:40.386Z,99.90
2023-03-16T00:58:08.401Z,99.90
2023-03-16T01:00:36.298Z,99.90
2023-03-16T01:03:04.296Z,99.90
2023-03-16T01:05:33.488Z,99.90
2023-03-16T01:08:02.792Z,99.90
2023-03-16T01:10:30.633Z,99.90
2023-03-16T01:12:59.760Z,99.90
2023-03-16T01:15:27.753Z,99.90
2023-03-16T01:17:55.585Z,99.90
2023-03-16T01:20:23.898Z,99.90
2023-03-16T01:22:52.170Z,99.90
2023-03-16T01:25:21.186Z,99.90
2023-03-16T01:27:49.017Z,99.90
2023-03-16T01:30:18.304Z,99.90
2023-03-16T01:32:46.153Z,99.90
2023-03-16T01:35:14.210Z,99.90
2023-03-16T01:37:42.081Z,99.90
2023-03-16T01:40:12.466Z,99.90
2023-03-16T01:42:47.263Z,99.90
2023-03-16T01:45:48.587Z,99.90
2023-03-16T01:48:17.894Z,99.90
2023-03-16T01:50:46.137Z,99.90
2023-03-16T01:53:13.944Z,99.90
2023-03-16T01:55:43.519Z,99.90
2023-03-16T01:58:14.494Z,99.90
2023-03-16T02:00:45.563Z,99.90
2023-03-16T02:03:18.531Z,99.90
2023-03-16T02:05:52.901Z,99.90
2023-03-16T02:08:22.849Z,99.90
2023-03-16T02:10:54.521Z,99.90
2023-03-16T02:13:23.501Z,99.90
2023-03-16T02:15:53.538Z,99.90
2023-03-16T02:18:23.523Z,99.90
2023-03-16T02:20:56.970Z,99.90
2023-03-16T02:23:26.337Z,99.90
2023-03-16T02:26:02.435Z,99.90
2023-03-16T02:28:36.948Z,99.90
2023-03-16T02:31:06.789Z,99.90
2023-03-16T02:33:35.931Z,99.90
2023-03-16T02:36:03.752Z,99.90
2023-03-16T02:38:31.694Z,99.90
2023-03-16T02:41:02.394Z,99.90
2023-03-16T02:43:34.197Z,99.90
2023-03-16T02:46:05.314Z,99.90
2023-03-16T02:48:38.657Z,99.90
2023-03-16T02:51:06.798Z,99.90
2023-03-16T02:53:34.600Z,99.90
2023-03-16T02:56:02.780Z,99.90
2023-03-16T02:58:31.812Z,99.90
2023-03-16T03:01:00.138Z,99.90
2023-03-16T03:03:28.191Z,99.90
2023-03-16T03:05:57.361Z,99.90
2023-03-16T03:08:25.159Z,99.90
2023-03-16T03:10:52.971Z,99.90
2023-03-16T03:13:20.773Z,99.90
2023-03-16T03:15:48.545Z,99.90
2023-03-16T03:18:16.397Z,99.90
2023-03-16T03:20:44.185Z,99.90
2023-03-16T03:23:15.278Z,99.90
2023-03-16T03:25:43.435Z,99.90
2023-03-16T03:28:11.399Z,99.90
2023-03-16T03:30:39.210Z,99.90
2023-03-16T03:33:07.092Z,99.90
2023-03-16T03:35:34.982Z,99.90
2023-03-16T03:38:02.832Z,99.90
2023-03-16T03:40:32.004Z,99.90
2023-03-16T03:42:59.777Z,99.90
2023-03-16T03:45:27.629Z,99.90
2023-03-16T03:47:56.154Z,99.90
2023-03-16T03:50:24.025Z,99.90
2023-03-16T03:52:51.800Z,99.90
2023-03-16T03:55:19.749Z,99.90
2023-03-16T03:57:48.945Z,99.90
2023-03-16T04:00:20.806Z,99.90
2023-03-16T04:02:49.018Z,99.90
2023-03-16T04:05:17.058Z,99.90
2023-03-16T04:07:44.887Z,99.90
2023-03-16T04:10:12.761Z,99.90
2023-03-16T04:12:40.852Z,99.90
2023-03-16T04:15:12.457Z,99.90
2023-03-16T04:17:40.302Z,99.90
2023-03-16T04:20:13.219Z,99.90
2023-03-16T04:22:42.416Z,99.90
2023-03-16T04:25:11.544Z,99.90
2023-03-16T04:27:39.499Z,99.90
2023-03-16T04:30:11.140Z,99.90
2023-03-16T04:32:41.634Z,99.90
2023-03-16T04:35:10.654Z,99.90
2023-03-16T04:37:38.586Z,99.90
2023-03-16T04:40:15.094Z,99.90
2023-03-16T04:42:43.044Z,99.90
2023-03-16T04:45:11.633Z,99.90
2023-03-16T04:47:41.226Z,99.90
2023-03-16T04:50:10.423Z,99.90
2023-03-16T04:52:38.271Z,99.90
2023-03-16T04:55:07.048Z,99.90
2023-03-16T04:57:35.050Z,99.90
2023-03-16T05:00:09.688Z,99.90
2023-03-16T05:02:37.788Z,99.90
2023-03-16T05:05:07.803Z,99.90
2023-03-16T05:07:35.657Z,99.90
2023-03-16T05:10:03.494Z,99.90
2023-03-16T05:12:31.284Z,99.90
2023-03-16T05:14:59.096Z,99.90
2023-03-16T05:17:26.908Z,99.90
2023-03-16T05:19:54.776Z,99.90
2023-03-16T05:22:24.146Z,99.90
2023-03-16T05:24:52.007Z,99.90
2023-03-16T05:27:20.408Z,99.90
2023-03-16T05:29:48.214Z,99.90
2023-03-16T05:32:17.057Z,99.90
2023-03-16T05:34:44.867Z,99.90
2023-03-16T05:37:13.175Z,99.90
2023-03-16T05:39:43.203Z,99.90
2023-03-16T05:42:11.218Z,99.90
2023-03-16T05:44:39.136Z,99.90
2023-03-16T05:47:07.185Z,99.90
2023-03-16T05:49:35.220Z,99.90
2023-03-16T05:52:04.924Z,99.90
2023-03-16T05:54:33.352Z,99.90
2023-03-16T05:57:02.462Z,99.90
2023-03-16T05:59:30.318Z,99.90
2023-03-16T06:01:58.141Z,99.90
2023-03-16T06:04:26.133Z,99.90
2023-03-16T06:06:54.008Z,99.90
2023-03-16T06:09:21.814Z,99.90
2023-03-16T06:11:49.599Z,99.90
2023-03-16T06:14:18.695Z,99.90
2023-03-16T06:16:46.461Z,99.90
2023-03-16T06:19:14.326Z,99.90
2023-03-16T06:21:42.248Z,99.90
2023-03-16T06:24:10.496Z,99.90
2023-03-16T06:26:38.660Z,99.90
2023-03-16T06:29:06.732Z,99.90
2023-03-16T06:31:36.091Z,99.90
2023-03-16T06:34:03.957Z,99.90
2023-03-16T06:36:31.769Z,99.90
2023-03-16T06:38:59.538Z,99.90
2023-03-16T06:41:27.311Z,99.90
2023-03-16T06:43:55.085Z,99.90
2023-03-16T06:46:22.931Z,99.90
2023-03-16T06:48:52.088Z,99.90
2023-03-16T06:51:19.973Z,99.90
2023-03-16T06:53:47.799Z,99.90
2023-03-16T06:56:15.629Z,99.90
2023-03-16T06:58:43.410Z,99.90
2023-03-16T07:01:12.562Z,99.90
2023-03-16T07:03:40.539Z,99.90
2023-03-16T07:06:10.723Z,99.90
2023-03-16T07:08:38.846Z,99.90
2023-03-16T07:11:06.823Z,99.90
2023-03-16T07:13:35.494Z,99.90
2023-03-16T07:16:04.805Z,99.90
2023-03-16T07:18:32.665Z,99.90
2023-03-16T07:21:00.502Z,99.90
2023-03-16T07:23:29.576Z,99.90
2023-03-16T07:25:57.367Z,99.90
2023-03-16T07:28:25.162Z,99.90
2023-03-16T07:31:03.340Z,99.90
2023-03-16T07:33:32.392Z,99.90
2023-03-16T07:36:00.554Z,99.90
2023-03-16T07:38:29.692Z,99.90
2023-03-16T07:40:57.424Z,99.90
2023-03-16T07:43:25.248Z,99.90
2023-03-16T07:45:53.989Z,99.90
2023-03-16T07:48:22.429Z,99.90
2023-03-16T07:50:50.569Z,99.90
2023-03-16T07:53:18.751Z,99.90
2023-03-16T07:55:47.992Z,99.90
2023-03-16T07:58:15.840Z,99.90
2023-03-16T08:00:43.630Z,99.90
2023-03-16T08:03:11.743Z,99.90
2023-03-16T08:05:39.568Z,99.90
2023-03-16T08:08:09.569Z,99.90
2023-03-16T08:10:37.358Z,99.90
2023-03-16T08:13:06.571Z,99.90
2023-03-16T08:15:35.029Z,99.90
2023-03-16T08:18:03.339Z,99.90
2023-03-16T08:20:31.590Z,99.90
2023-03-16T08:25:28.002Z,99.90
2023-03-16T08:27:55.953Z,99.90
2023-03-16T08:30:25.536Z,99.90
2023-03-16T08:32:53.345Z,99.90
2023-03-16T08:35:21.196Z,99.90
2023-03-16T08:37:49.513Z,99.90
2023-03-16T08:40:17.766Z,99.90
2023-03-16T08:42:45.752Z,99.90
2023-03-16T08:45:14.792Z,99.90
2023-03-16T08:47:44.507Z,99.90
2023-03-16T08:50:13.450Z,99.90
2023-03-16T08:52:42.684Z,99.90
2023-03-16T08:55:11.488Z,99.90
2023-03-16T08:57:39.740Z,99.90
2023-03-16T09:00:13.210Z,99.90
2023-03-16T09:02:41.697Z,99.90
2023-03-16T09:05:12.846Z,99.90
2023-03-16T09:07:40.846Z,99.90
2023-03-16T09:10:13.343Z,99.90
2023-03-16T09:12:42.625Z,99.90
2023-03-16T09:15:12.123Z,98.90
2023-03-16T09:17:41.639Z,99.20
2023-03-16T09:20:22.194Z,96.30
2023-03-16T09:22:50.393Z,95.10
2023-03-16T09:25:18.514Z,95.00
2023-03-16T09:27:46.713Z,94.90
2023-03-16T09:30:16.631Z,96.20
2023-03-16T09:32:44.886Z,94.00
2023-03-16T09:35:14.522Z,96.20
2023-03-16T09:37:45.361Z,96.90
2023-03-16T09:40:25.504Z,95.70
2023-03-16T09:43:07.138Z,95.30
2023-03-16T09:45:38.803Z,95.00
2023-03-16T09:48:09.285Z,94.70
2023-03-16T09:50:48.908Z,94.70
2023-03-16T09:53:24.771Z,94.20
2023-03-16T09:55:55.240Z,95.80
2023-03-16T09:58:23.677Z,94.90
2023-03-16T10:01:01.096Z,93.80
2023-03-16T10:03:39.572Z,95.60
2023-03-16T10:06:13.694Z,95.60
2023-03-16T10:08:44.789Z,94.90
2023-03-16T10:11:29.224Z,94.30
2023-03-16T10:14:03.089Z,95.30
2023-03-16T10:16:35.679Z,96.20
2023-03-16T10:19:11.596Z,96.00
2023-03-16T10:21:43.216Z,95.50
2023-03-16T10:24:21.984Z,95.10
2023-03-16T10:26:59.981Z,99.90
2023-03-16T10:29:30.965Z,99.90
2023-03-16T10:32:01.933Z,99.90
2023-03-16T10:34:30.622Z,99.90
2023-03-16T10:37:02.888Z,99.90
2023-03-16T10:39:42.798Z,99.90
2023-03-16T10:42:19.280Z,99.90
2023-03-16T10:44:47.450Z,99.90
2023-03-16T10:47:20.087Z,99.90
2023-03-16T10:49:51.189Z,99.90
2023-03-16T10:52:24.837Z,99.90
2023-03-16T10:54:55.934Z,99.90
2023-03-16T10:57:31.181Z,99.90
2023-03-16T11:00:07.209Z,99.90
2023-03-16T11:05:14.105Z,99.90
2023-03-16T11:07:49.862Z,99.90
2023-03-16T11:10:32.341Z,99.90
2023-03-16T11:13:10.426Z,99.90
2023-03-16T11:15:42.210Z,99.90
2023-03-16T11:18:20.931Z,99.90
2023-03-16T11:20:49.257Z,99.90
2023-03-16T11:23:22.053Z,99.90
2023-03-16T11:25:54.320Z,99.90
2023-03-16T11:28:31.730Z,99.90
2023-03-16T11:31:20.152Z,99.90
2023-03-16T11:33:49.033Z,99.90
2023-03-16T11:36:29.850Z,99.90
2023-03-16T11:39:07.512Z,99.90
2023-03-16T11:41:43.764Z,99.90
2023-03-16T11:44:19.270Z,99.90
2023-03-16T11:46:56.959Z,99.90
2023-03-16T11:49:53.276Z,99.90
2023-03-16T11:52:34.085Z,99.90
2023-03-16T11:55:13.885Z,99.90
2023-03-16T11:57:53.412Z,99.90
2023-03-16T12:00:28.526Z,99.90
2023-03-16T12:03:24.870Z,99.90
2023-03-16T12:06:02.025Z,99.90
2023-03-16T12:08:55.726Z,99.90
2023-03-16T12:11:28.932Z,99.90
2023-03-16T12:14:06.663Z,99.90
2023-03-16T12:16:49.159Z,99.90
2023-03-16T12:19:23.105Z,99.90
2023-03-16T12:22:02.183Z,99.90
2023-03-16T12:24:35.652Z,99.90
2023-03-16T12:27:06.754Z,99.90
2023-03-16T12:29:37.527Z,99.90
2023-03-16T12:32:13.165Z,99.90
2023-03-16T12:34:45.740Z,99.90
2023-03-16T12:37:29.164Z,99.90
2023-03-16T12:40:10.701Z,99.90
2023-03-16T12:42:59.370Z,99.90
2023-03-16T12:45:35.148Z,99.90
2023-03-16T12:48:11.376Z,99.90
2023-03-16T12:50:50.290Z,99.90
2023-03-16T12:53:30.443Z,99.90
2023-03-16T12:55:58.300Z,99.90
2023-03-16T12:58:28.459Z,99.90
2023-03-16T13:00:59.059Z,99.90
2023-03-16T13:03:28.451Z,99.90
2023-03-16T13:06:00.665Z,99.90
2023-03-16T13:08:28.986Z,99.90
2023-03-16T13:11:05.509Z,99.90
2023-03-16T13:13:35.621Z,99.90
2023-03-16T13:16:06.956Z,99.90
2023-03-16T13:18:38.629Z,99.90
2023-03-16T13:21:18.929Z,99.90
2023-03-16T13:24:01.329Z,99.90
2023-03-16T13:26:40.466Z,99.90
2023-03-16T13:29:23.032Z,99.90
2023-03-16T13:31:52.316Z,99.90
2023-03-16T13:34:27.079Z,99.90
2023-03-16T13:36:57.963Z,99.90
2023-03-16T13:39:28.398Z,99.90
2023-03-16T13:41:59.525Z,99.90
2023-03-16T13:44:29.558Z,99.90
2023-03-16T13:46:57.412Z,99.90
2023-03-16T13:49:25.210Z,99.90
2023-03-16T13:51:53.745Z,99.90
2023-03-16T13:54:28.054Z,99.90
2023-03-16T13:56:58.474Z,99.90
2023-03-16T13:59:28.037Z,99.90
2023-03-16T14:01:59.567Z,99.90
2023-03-16T14:04:29.715Z,99.90
2023-03-16T14:06:58.979Z,99.90
2023-03-16T14:09:28.957Z,99.90
2023-03-16T14:11:57.749Z,99.90
2023-03-16T14:14:29.590Z,99.90
2023-03-16T14:17:05.319Z,99.90
2023-03-16T14:19:42.304Z,99.90
2023-03-16T14:22:18.945Z,99.90
2023-03-16T14:24:53.697Z,99.90
2023-03-16T14:27:26.624Z,99.90
2023-03-16T14:30:01.070Z,99.90
2023-03-16T14:32:30.959Z,99.90
2023-03-16T14:35:12.889Z,99.90
2023-03-16T14:37:41.899Z,99.90
2023-03-16T14:40:24.256Z,99.90
2023-03-16T14:42:53.039Z,99.90
2023-03-16T14:45:22.684Z,99.90
2023-03-16T14:47:53.603Z,99.90
2023-03-16T14:50:25.171Z,99.90
2023-03-16T14:52:56.726Z,99.90
2023-03-16T14:55:25.659Z,99.90
2023-03-16T14:57:53.863Z,99.90
2023-03-16T15:00:23.864Z,99.90
2023-03-16T15:02:59.087Z,99.90
2023-03-16T15:05:35.096Z,99.90
2023-03-16T15:08:03.979Z,99.90
2023-03-16T15:10:34.432Z,99.90
2023-03-16T15:13:12.901Z,99.90
2023-03-16T15:15:42.780Z,99.90
2023-03-16T15:18:11.214Z,99.90
2023-03-16T15:20:43.599Z,99.90
2023-03-16T15:23:15.676Z,99.90
2023-03-16T15:25:44.711Z,99.90
2023-03-16T15:28:15.740Z,99.90
2023-03-16T15:30:46.646Z,99.90
2023-03-16T15:33:14.983Z,99.90
2023-03-16T15:35:44.087Z,99.90
2023-03-16T15:38:16.128Z,99.90
2023-03-16T15:40:45.659Z,99.90
2023-03-16T15:43:14.729Z,99.90
2023-03-16T15:45:44.435Z,99.90
2023-03-16T15:48:13.136Z,99.90
2023-03-16T15:50:43.993Z,99.90
2023-03-16T15:53:29.696Z,99.90
2023-03-16T15:56:03.162Z,99.90
2023-03-16T15:58:32.623Z,99.90
2023-03-16T16:01:03.678Z,99.90
2023-03-16T16:03:31.588Z,99.90
2023-03-16T16:05:59.392Z,99.90
2023-03-16T16:08:27.216Z,99.90
2023-03-16T16:10:56.384Z,99.90
2023-03-16T16:13:34.221Z,99.90
2023-03-16T16:16:13.484Z,99.90
2023-03-16T16:18:41.899Z,99.90
2023-03-16T16:21:16.860Z,99.90
2023-03-16T16:23:44.721Z,99.90
2023-03-16T16:26:26.319Z,99.90
2023-03-16T16:28:58.394Z,99.90
2023-03-16T16:31:31.228Z,99.90
2023-03-16T16:33:59.672Z,99.90
2023-03-16T16:36:27.614Z,99.90
2023-03-16T16:38:57.069Z,99.90
2023-03-16T16:41:28.613Z,99.90
2023-03-16T16:43:57.864Z,99.90
2023-03-16T16:46:29.213Z,99.90
2023-03-16T16:49:01.634Z,99.90
2023-03-16T16:51:30.694Z,99.90
2023-03-16T16:54:00.080Z,99.90
2023-03-16T16:56:30.817Z,99.90
2023-03-16T16:59:00.137Z,99.90
2023-03-16T17:01:32.922Z,99.90
2023-03-16T17:04:01.270Z,99.90
2023-03-16T17:06:29.361Z,99.90
2023-03-16T17:08:57.419Z,99.90
2023-03-16T17:11:27.521Z,99.90
2023-03-16T17:13:57.739Z,99.90
2023-03-16T17:16:27.697Z,99.90
2023-03-16T17:18:57.135Z,99.90
2023-03-16T17:21:27.154Z,99.90
2023-03-16T17:23:56.071Z,99.90
2023-03-16T17:26:26.220Z,99.90
2023-03-16T17:28:57.968Z,99.90
2023-03-16T17:31:30.934Z,99.90
2023-03-16T17:34:00.127Z,99.90
2023-03-16T17:36:28.114Z,99.90
2023-03-16T17:38:56.206Z,99.90
2023-03-16T17:41:26.534Z,99.90
2023-03-16T17:43:56.618Z,99.90
2023-03-16T17:46:27.263Z,99.90
2023-03-16T17:48:56.023Z,99.90
2023-03-16T17:51:25.907Z,99.90
2023-03-16T17:53:53.971Z,99.90
2023-03-16T17:56:24.253Z,99.90
2023-03-16T17:58:57.166Z,99.90
2023-03-16T18:01:29.067Z,99.90
2023-03-16T18:03:57.893Z,99.90
2023-03-16T18:06:29.754Z,99.90
2023-03-16T18:08:58.214Z,99.90
2023-03-16T18:11:32.688Z,99.90
2023-03-16T18:14:01.044Z,99.90
2023-03-16T18:16:29.946Z,99.90
2023-03-16T18:19:00.959Z,99.90
2023-03-16T18:21:30.784Z,99.90
2023-03-16T18:23:58.613Z,99.90
2023-03-16T18:26:27.505Z,99.90
2023-03-16T18:28:55.496Z,99.90
2023-03-16T18:31:26.260Z,99.90
2023-03-16T18:33:57.020Z,99.90
2023-03-16T18:36:28.671Z,99.90
2023-03-16T18:38:59.681Z,99.90
2023-03-16T18:41:29.396Z,99.90
2023-03-16T18:43:58.932Z,99.90
2023-03-16T18:46:28.964Z,99.90
2023-03-16T18:48:58.920Z,99.90
2023-03-16T18:51:27.397Z,99.90
2023-03-16T18:53:56.682Z,99.90
2023-03-16T18:56:27.108Z,99.90
2023-03-16T18:58:56.163Z,1.00
2023-03-16T19:01:26.460Z,1.00
2023-03-16T19:03:55.335Z,1.00
2023-03-16T19:06:27.234Z,1.00
2023-03-16T19:08:55.837Z,1.00
2023-03-16T19:11:25.039Z,1.00
2023-03-16T19:13:54.729Z,1.00
2023-03-16T19:16:23.496Z,1.00
2023-03-16T19:18:51.366Z,1.00
2023-03-16T19:21:22.845Z,1.00
2023-03-16T19:23:57.232Z,1.00
2023-03-16T19:26:26.668Z,1.00
2023-03-16T19:28:54.671Z,1.00
2023-03-16T19:31:24.488Z,1.00
2023-03-16T19:33:53.131Z,1.00
2023-03-16T19:36:24.076Z,1.00
2023-03-16T19:38:52.775Z,1.00
2023-03-16T19:41:24.401Z,1.00
2023-03-16T19:43:54.610Z,1.00
2023-03-16T19:46:23.266Z,1.00
2023-03-16T19:48:51.663Z,1.00
2023-03-16T19:53:48.101Z,1.00
2023-03-16T19:56:18.277Z,1.00
2023-03-16T19:58:48.699Z,1.00
2023-03-16T20:01:21.938Z,1.00
2023-03-16T20:03:50.459Z,99.90
2023-03-16T20:06:20.980Z,99.90
2023-03-16T20:08:50.483Z,99.90
2023-03-16T20:11:23.475Z,99.90
2023-03-16T20:13:51.710Z,99.90
2023-03-16T20:16:23.663Z,99.90
2023-03-16T20:18:55.649Z,99.90
2023-03-16T20:21:24.300Z,99.90
2023-03-16T20:23:53.373Z,99.90
2023-03-16T20:26:24.240Z,99.90
2023-03-16T20:28:53.067Z,1.00
2023-03-16T20:31:25.506Z,1.00
2023-03-16T20:33:54.663Z,1.00
2023-03-16T20:36:23.717Z,1.00
2023-03-16T20:38:51.694Z,1.00
2023-03-16T20:41:25.414Z,87.10
2023-03-16T20:43:54.385Z,61.40
2023-03-16T20:46:26.458Z,99.90
2023-03-16T20:48:54.482Z,99.90
2023-03-16T20:51:23.290Z,99.90
2023-03-16T20:53:51.326Z,99.90
2023-03-16T20:56:21.642Z,99.90
2023-03-16T20:58:50.982Z,99.90
2023-03-16T21:01:21.436Z,99.90
2023-03-16T21:03:53.057Z,99.90
2023-03-16T21:06:24.004Z,99.90
2023-03-16T21:08:53.080Z,99.90
2023-03-16T21:11:23.624Z,99.90
2023-03-16T21:13:52.212Z,99.90
2023-03-16T21:16:21.537Z,99.90
2023-03-16T21:18:50.880Z,99.90
2023-03-16T21:21:20.402Z,99.90
2023-03-16T21:23:48.694Z,99.90
2023-03-16T21:26:19.262Z,99.90
2023-03-16T21:28:54.923Z,99.90
2023-03-16T21:31:23.434Z,99.90
2023-03-16T21:33:53.948Z,99.90
2023-03-16T21:36:23.717Z,99.90
2023-03-16T21:38:52.467Z,99.90
2023-03-16T21:41:20.977Z,99.90
2023-03-16T21:43:49.934Z,99.90
2023-03-16T21:46:19.873Z,99.90
2023-03-16T21:48:49.795Z,99.90
2023-03-16T21:51:20.935Z,99.90
2023-03-16T21:53:50.150Z,99.90
2023-03-16T21:56:22.672Z,99.90
2023-03-16T21:58:51.036Z,99.90
2023-03-16T22:01:24.829Z,99.90
2023-03-16T22:03:54.768Z,99.90
2023-03-16T22:06:25.441Z,99.90
2023-03-16T22:08:53.220Z,99.90
2023-03-16T22:11:23.480Z,99.90
2023-03-16T22:13:52.202Z,99.90
2023-03-16T22:16:23.078Z,99.90
2023-03-16T22:18:53.067Z,99.90
2023-03-16T22:21:30.284Z,99.90
2023-03-16T22:23:59.195Z,99.90
2023-03-16T22:26:27.502Z,99.90
2023-03-16T22:28:56.338Z,99.90
2023-03-16T22:31:30.400Z,99.90
2023-03-16T22:33:58.350Z,99.90
2023-03-16T22:36:27.962Z,99.90
2023-03-16T22:39:00.552Z,99.90
2023-03-16T22:41:30.174Z,99.90
2023-03-16T22:43:59.528Z,99.90
2023-03-16T22:46:29.517Z,99.90
2023-03-16T22:48:58.310Z,99.90
2023-03-16T22:51:30.749Z,99.90
2023-03-16T22:54:01.102Z,99.90
2023-03-16T22:56:31.966Z,99.90
2023-03-16T22:59:02.614Z,99.90
2023-03-16T23:01:34.744Z,99.90
2023-03-16T23:06:33.368Z,99.90
2023-03-16T23:09:01.200Z,99.90
2023-03-16T23:11:31.946Z,99.90
2023-03-16T23:14:00.745Z,99.90
2023-03-16T23:16:32.107Z,99.90
2023-03-16T23:19:00.443Z,99.90
2023-03-16T23:21:31.474Z,99.90
2023-03-16T23:24:04.367Z,99.90
2023-03-16T23:26:33.199Z,99.90
2023-03-16T23:29:01.308Z,99.90
2023-03-16T23:31:30.086Z,99.90
2023-03-16T23:33:57.946Z,99.90
2023-03-16T23:36:27.241Z,99.90
2023-03-16T23:38:55.214Z,99.90
2023-03-16T23:41:25.791Z,99.90
2023-03-16T23:43:54.279Z,99.90
2023-03-16T23:46:24.638Z,99.90
2023-03-16T23:48:54.293Z,99.90
2023-03-16T23:51:24.410Z,99.90
2023-03-16T23:53:53.104Z,99.90
2023-03-16T23:56:21.549Z,99.90
2023-03-16T23:58:50.954Z,99.90
